sensor_id;sensor_type;location;lat;lon;timestamp;temperature;humidity
23495;DHT22;26107;50.832;2.950;2023-04-25T00:04:23;10.70;99.90
23495;DHT22;26107;50.832;2.950;2023-04-25T00:19:26;10.70;99.90
23495;DHT22;26107;50.832;2.950;2023-04-25T00:34:28;10.20;99.90
23495;DHT22;26107;50.832;2.950;2023-04-25T00:49:29;10.40;99.90
23495;DHT22;26107;50.832;2.950;2023-04-25T01:04:30;10.20;99.90
23495;DHT22;26107;50.832;2.950;2023-04-25T01:19:30;9.80;99.90
23495;DHT22;26107;50.832;2.950;2023-04-25T01:34:32;9.20;99.90
23495;DHT22;26107;50.832;2.950;2023-04-25T01:49:32;8.50;99.90
23495;DHT22;26107;50.832;2.950;2023-04-25T02:04:33;8.40;99.90
23495;DHT22;26107;50.832;2.950;2023-04-25T02:19:33;8.40;99.90
23495;DHT22;26107;50.832;2.950;2023-04-25T02:34:34;9.50;99.90
23495;DHT22;26107;50.832;2.950;2023-04-25T02:49:34;9.70;99.90
23495;DHT22;26107;50.832;2.950;2023-04-25T03:04:35;9.80;99.90
23495;DHT22;26107;50.832;2.950;2023-04-25T03:19:36;9.40;99.90
23495;DHT22;26107;50.832;2.950;2023-04-25T03:34:36;9.60;99.90
23495;DHT22;26107;50.832;2.950;2023-04-25T03:49:37;9.20;99.90
23495;DHT22;26107;50.832;2.950;2023-04-25T04:04:37;8.80;99.90
23495;DHT22;26107;50.832;2.950;2023-04-25T04:19:38;8.60;99.90
23495;DHT22;26107;50.832;2.950;2023-04-25T04:34:39;8.00;99.90
23495;DHT22;26107;50.832;2.950;2023-04-25T04:49:39;8.30;99.90
23495;DHT22;26107;50.832;2.950;2023-04-25T05:04:40;8.40;99.90
23495;DHT22;26107;50.832;2.950;2023-04-25T05:19:41;8.60;99.90
23495;DHT22;26107;50.832;2.950;2023-04-25T05:34:41;8.70;99.90
23495;DHT22;26107;50.832;2.950;2023-04-25T05:49:42;9.00;99.90
23495;DHT22;26107;50.832;2.950;2023-04-25T06:04:43;9.30;99.90
23495;DHT22;26107;50.832;2.950;2023-04-25T06:19:43;9.40;99.90
23495;DHT22;26107;50.832;2.950;2023-04-25T06:34:44;8.30;99.90
23495;DHT22;26107;50.832;2.950;2023-04-25T06:49:44;8.40;99.90
23495;DHT22;26107;50.832;2.950;2023-04-25T07:04:45;9.20;99.90
23495;DHT22;26107;50.832;2.950;2023-04-25T07:19:46;9.10;99.90
23495;DHT22;26107;50.832;2.950;2023-04-25T07:34:47;8.50;99.90
23495;DHT22;26107;50.832;2.950;2023-04-25T07:49:47;9.10;99.90
23495;DHT22;26107;50.832;2.950;2023-04-25T08:04:48;8.80;99.90
23495;DHT22;26107;50.832;2.950;2023-04-25T08:19:49;8.00;99.90
23495;DHT22;26107;50.832;2.950;2023-04-25T08:34:50;8.40;99.90
23495;DHT22;26107;50.832;2.950;2023-04-25T08:49:54;9.40;99.90
23495;DHT22;26107;50.832;2.950;2023-04-25T09:04:55;8.90;99.90
23495;DHT22;26107;50.832;2.950;2023-04-25T09:20:12;9.10;99.90
23495;DHT22;26107;50.832;2.950;2023-04-25T09:35:24;9.70;99.90
23495;DHT22;26107;50.832;2.950;2023-04-25T09:50:26;9.50;99.90
23495;DHT22;26107;50.832;2.950;2023-04-25T10:05:28;9.00;99.90
23495;DHT22;26107;50.832;2.950;2023-04-25T10:20:30;9.90;99.90
23495;DHT22;26107;50.832;2.950;2023-04-25T10:35:33;9.50;99.90
23495;DHT22;26107;50.832;2.950;2023-04-25T10:50:38;10.20;99.90
23495;DHT22;26107;50.832;2.950;2023-04-25T11:05:43;9.80;99.90
23495;DHT22;26107;50.832;2.950;2023-04-25T11:20:47;9.80;99.90
23495;DHT22;26107;50.832;2.950;2023-04-25T11:35:48;9.90;99.90
23495;DHT22;26107;50.832;2.950;2023-04-25T11:50:49;10.30;99.90
23495;DHT22;26107;50.832;2.950;2023-04-25T12:05:50;10.60;99.90
23495;DHT22;26107;50.832;2.950;2023-04-25T12:20:52;9.80;99.90
23495;DHT22;26107;50.832;2.950;2023-04-25T12:35:54;10.20;99.90
23495;DHT22;26107;50.832;2.950;2023-04-25T12:50:54;10.00;99.90
23495;DHT22;26107;50.832;2.950;2023-04-25T13:05:55;10.40;99.90
23495;DHT22;26107;50.832;2.950;2023-04-25T13:20:56;11.00;99.90
23495;DHT22;26107;50.832;2.950;2023-04-25T13:35:57;11.10;99.90
23495;DHT22;26107;50.832;2.950;2023-04-25T13:50:58;10.80;99.90
23495;DHT22;26107;50.832;2.950;2023-04-25T14:05:59;11.80;99.90
23495;DHT22;26107;50.832;2.950;2023-04-25T14:20:59;11.20;99.90
23495;DHT22;26107;50.832;2.950;2023-04-25T14:36:00;11.10;99.90
23495;DHT22;26107;50.832;2.950;2023-04-25T14:51:00;11.10;99.90
23495;DHT22;26107;50.832;2.950;2023-04-25T15:06:01;11.30;99.90
23495;DHT22;26107;50.832;2.950;2023-04-25T15:21:02;11.60;99.90
23495;DHT22;26107;50.832;2.950;2023-04-25T15:36:02;11.60;99.90
23495;DHT22;26107;50.832;2.950;2023-04-25T15:51:03;11.80;99.90
23495;DHT22;26107;50.832;2.950;2023-04-25T16:06:04;11.10;99.90
23495;DHT22;26107;50.832;2.950;2023-04-25T16:21:05;10.80;99.90
23495;DHT22;26107;50.832;2.950;2023-04-25T16:36:06;11.30;99.90
23495;DHT22;26107;50.832;2.950;2023-04-25T16:51:07;12.00;99.90
23495;DHT22;26107;50.832;2.950;2023-04-25T17:06:09;12.80;99.90
23495;DHT22;26107;50.832;2.950;2023-04-25T17:21:10;15.50;99.90
23495;DHT22;26107;50.832;2.950;2023-04-25T17:36:11;16.40;97.80
23495;DHT22;26107;50.832;2.950;2023-04-25T17:51:11;15.10;97.90
23495;DHT22;26107;50.832;2.950;2023-04-25T18:06:12;13.20;99.90
23495;DHT22;26107;50.832;2.950;2023-04-25T18:21:13;13.40;99.90
23495;DHT22;26107;50.832;2.950;2023-04-25T18:36:13;12.70;99.90
23495;DHT22;26107;50.832;2.950;2023-04-25T18:51:14;11.80;99.90
23495;DHT22;26107;50.832;2.950;2023-04-25T19:06:15;11.40;99.90
23495;DHT22;26107;50.832;2.950;2023-04-25T19:21:17;11.00;99.90
23495;DHT22;26107;50.832;2.950;2023-04-25T19:36:17;10.60;99.90
23495;DHT22;26107;50.832;2.950;2023-04-25T19:51:18;10.30;99.90
23495;DHT22;26107;50.832;2.950;2023-04-25T20:06:19;9.90;99.90
23495;DHT22;26107;50.832;2.950;2023-04-25T20:21:21;9.70;99.90
23495;DHT22;26107;50.832;2.950;2023-04-25T20:36:21;9.30;99.90
23495;DHT22;26107;50.832;2.950;2023-04-25T20:51:22;9.10;99.90
23495;DHT22;26107;50.832;2.950;2023-04-25T21:06:23;9.00;99.90
23495;DHT22;26107;50.832;2.950;2023-04-25T21:21:23;9.00;99.90
23495;DHT22;26107;50.832;2.950;2023-04-25T21:36:24;8.70;99.90
23495;DHT22;26107;50.832;2.950;2023-04-25T21:51:24;8.50;99.90
23495;DHT22;26107;50.832;2.950;2023-04-25T22:06:26;8.40;99.90
23495;DHT22;26107;50.832;2.950;2023-04-25T22:21:27;8.40;99.90
23495;DHT22;26107;50.832;2.950;2023-04-25T22:36:28;8.10;99.90
23495;DHT22;26107;50.832;2.950;2023-04-25T22:51:29;8.00;99.90
23495;DHT22;26107;50.832;2.950;2023-04-25T23:06:30;7.80;99.90
23495;DHT22;26107;50.832;2.950;2023-04-25T23:21:31;7.80;99.90
23495;DHT22;26107;50.832;2.950;2023-04-25T23:36:32;7.90;99.90
23495;DHT22;26107;50.832;2.950;2023-04-25T23:51:33;7.90;99.90
